createdAt,value
2019-04-22T00:00:04.657Z,48.37
2019-04-22T00:11:02.693Z,52.90
2019-04-22T00:20:49.968Z,47.92
2019-04-22T00:30:33.743Z,47.67
2019-04-22T00:40:50.491Z,49.34
2019-04-22T01:21:16.000Z,53.24
2019-04-22T01:30:26.372Z,55.71
2019-04-22T01:40:44.753Z,58.50
2019-04-22T01:50:54.528Z,59.17
2019-04-22T02:00:53.097Z,59.42
2019-04-22T02:11:00.590Z,57.35
2019-04-22T02:20:42.600Z,56.26
2019-04-22T02:41:06.552Z,55.33
2019-04-22T02:51:09.913Z,59.52
2019-04-22T03:01:13.220Z,61.65
2019-04-22T03:10:54.516Z,56.82
2019-04-22T03:20:49.863Z,57.43
2019-04-22T03:31:02.894Z,57.19
2019-04-22T03:41:27.027Z,58.13
2019-04-22T03:50:35.923Z,57.45
2019-04-22T04:01:29.363Z,57.36
2019-04-22T04:11:23.129Z,56.91
2019-04-22T04:31:08.918Z,55.91
2019-04-22T04:41:15.100Z,54.65
2019-04-22T04:51:23.632Z,53.91
2019-04-22T05:01:22.587Z,53.55
2019-04-22T05:10:55.978Z,52.25
2019-04-22T05:20:59.350Z,48.72
2019-04-22T05:30:38.986Z,49.72
2019-04-22T05:40:49.474Z,47.52
2019-04-22T05:50:44.964Z,44.83
2019-04-22T06:01:03.477Z,45.94
2019-04-22T06:10:51.482Z,44.64
2019-04-22T06:21:05.074Z,41.59
2019-04-22T06:30:55.614Z,42.68
2019-04-22T06:50:52.620Z,40.43
2019-04-22T07:00:51.833Z,38.32
2019-04-22T07:10:41.861Z,39.60
2019-04-22T07:20:56.184Z,38.24
2019-04-22T07:30:52.662Z,38.04
2019-04-22T07:51:06.839Z,34.77
2019-04-22T08:01:01.790Z,34.70
2019-04-22T08:10:56.592Z,33.23
2019-04-22T08:20:46.977Z,31.70
2019-04-22T08:30:59.478Z,31.45
2019-04-22T08:40:46.939Z,32.27
2019-04-22T08:51:00.182Z,30.71
2019-04-22T09:10:43.128Z,29.18
2019-04-22T09:20:57.056Z,28.45
2019-04-22T09:30:54.773Z,27.55
2019-04-22T09:40:51.601Z,27.35
2019-04-22T09:50:58.696Z,27.82
2019-04-22T10:01:11.894Z,27.31
2019-04-22T10:10:34.647Z,27.55
2019-04-22T10:30:59.663Z,27.26
2019-04-22T10:40:09.178Z,27.32
2019-04-22T10:50:04.485Z,26.70
2019-04-22T11:00:04.844Z,26.80
2019-04-22T11:10:36.634Z,26.86
2019-04-22T11:20:08.846Z,26.87
2019-04-22T11:30:05.684Z,25.27
2019-04-22T11:40:23.949Z,24.26
2019-04-22T11:50:04.133Z,23.71
2019-04-22T12:00:09.503Z,25.23
2019-04-22T12:10:29.485Z,24.36
2019-04-22T12:20:09.045Z,24.98
2019-04-22T12:30:04.888Z,25.88
2019-04-22T12:40:04.161Z,23.94
2019-04-22T12:50:18.329Z,24.27
2019-04-22T13:00:04.097Z,24.91
2019-04-22T13:10:10.074Z,24.45
2019-04-22T13:20:03.057Z,24.50
2019-04-22T13:30:06.295Z,23.40
2019-04-22T13:40:05.272Z,24.23
2019-04-22T13:51:13.039Z,23.38
2019-04-22T14:00:07.988Z,22.26
2019-04-22T14:10:04.328Z,22.65
2019-04-22T14:20:10.654Z,21.95
2019-04-22T14:30:03.934Z,22.54
2019-04-22T14:40:12.374Z,22.39
2019-04-22T14:50:39.913Z,22.25
2019-04-22T15:00:06.025Z,21.66
2019-04-22T15:10:03.983Z,21.82
2019-04-22T15:20:05.682Z,21.80
2019-04-22T15:30:05.573Z,22.47
2019-04-22T15:40:04.605Z,22.22
2019-04-22T15:50:05.653Z,22.51
2019-04-22T16:00:31.819Z,21.90
2019-04-22T16:10:10.379Z,21.14
2019-04-22T16:20:04.014Z,21.94
2019-04-22T16:30:05.346Z,22.30
2019-04-22T16:40:04.987Z,22.41
2019-04-22T16:50:05.417Z,22.91
2019-04-22T17:00:04.620Z,23.71
2019-04-22T17:10:09.954Z,23.96
2019-04-22T17:20:04.975Z,24.92
2019-04-22T17:30:04.609Z,25.44
2019-04-22T17:40:43.676Z,25.83
2019-04-22T17:50:59.426Z,25.61
2019-04-22T18:00:44.318Z,26.02
2019-04-22T18:10:45.523Z,27.10
2019-04-22T18:20:28.960Z,28.29
2019-04-22T18:30:31.955Z,29.60
2019-04-22T18:40:38.236Z,30.02
2019-04-22T18:50:54.925Z,30.41
2019-04-22T19:00:08.449Z,31.30
2019-04-22T19:10:51.634Z,32.26
2019-04-22T19:21:01.073Z,32.62
2019-04-22T19:30:53.399Z,33.56
2019-04-22T19:40:40.248Z,34.43
2019-04-22T20:00:34.951Z,36.48
2019-04-22T20:10:41.902Z,36.88
2019-04-22T20:20:52.358Z,37.19
2019-04-22T20:30:45.647Z,37.67
2019-04-22T20:40:48.996Z,38.07
2019-04-22T20:50:47.809Z,38.75
2019-04-22T21:00:35.979Z,39.52
2019-04-22T21:10:33.221Z,40.48
2019-04-22T21:20:56.014Z,41.23
2019-04-22T21:30:42.641Z,41.97
2019-04-22T21:40:47.183Z,43.57
2019-04-22T21:50:47.713Z,45.21
2019-04-22T22:00:42.697Z,46.56
2019-04-22T22:10:44.744Z,47.62
2019-04-22T22:30:54.527Z,49.29
2019-04-22T22:40:17.354Z,50.02
2019-04-22T23:00:43.871Z,51.60
2019-04-22T23:10:55.239Z,52.48
2019-04-22T23:20:07.104Z,52.73
2019-04-22T23:30:23.794Z,53.79
2019-04-22T23:40:46.972Z,54.25
2019-04-22T23:50:43.647Z,55.47
